Time;durP1;ratioP1;P1;durP2;ratioP2;P2;SDS_P1;SDS_P2;PMS_P1;PMS_P2;Temp;Humidity;BMP_temperature;BMP_pressure;BME280_temperature;BME280_humidity;BME280_pressure;Samples;Min_cycle;Max_cycle;Signal;HPM_P1;HPM_P2
2022/01/27 00:01:40;;;;;;;154.05;84.38;;;;;;;;;;5041245;28;20434;-91
2022/01/27 00:04:15;;;;;;;154.05;84.13;;;;;;;;;;5032592;28;20499;-90
2022/01/27 00:06:42;;;;;;;156.63;85.57;;;;;;;;;;5037225;28;20488;-90
2022/01/27 00:09:21;;;;;;;154.23;84.40;;;;;;;;;;5038084;28;20902;-90
2022/01/27 00:11:48;;;;;;;156.02;86.95;;;;;;;;;;5042970;28;20426;-90
2022/01/27 00:14:18;;;;;;;168.32;89.70;;;;;;;;;;5032446;28;20406;-91
2022/01/27 00:16:54;;;;;;;162.93;87.63;;;;;;;;;;5042539;28;20403;-90
2022/01/27 00:19:22;;;;;;;159.90;86.88;;;;;;;;;;5046230;28;20462;-90
2022/01/27 00:21:50;;;;;;;154.45;84.80;;;;;;;;;;5040929;28;20894;-90
2022/01/27 00:24:17;;;;;;;154.30;84.90;;;;;;;;;;5048732;28;20483;-90
2022/01/27 00:26:45;;;;;;;159.13;85.53;;;;;;;;;;5044721;28;20479;-89
2022/01/27 00:29:12;;;;;;;156.18;84.97;;;;;;;;;;5031067;28;20409;-88
2022/01/27 00:31:39;;;;;;;159.20;86.75;;;;;;;;;;5045489;28;20764;-90
2022/01/27 00:34:06;;;;;;;153.40;85.68;;;;;;;;;;5032005;28;20459;-89
2022/01/27 00:36:34;;;;;;;158.90;85.57;;;;;;;;;;5039648;28;20408;-90
2022/01/27 00:39:02;;;;;;;157.68;84.40;;;;;;;;;;5032967;28;20966;-90
2022/01/27 00:41:29;;;;;;;161.38;85.80;;;;;;;;;;5037622;28;20417;-89
2022/01/27 00:43:57;;;;;;;153.43;84.00;;;;;;;;;;5040510;28;20467;-91
2022/01/27 00:46:24;;;;;;;153.93;83.55;;;;;;;;;;5032269;28;20409;-90
2022/01/27 00:48:52;;;;;;;153.35;84.53;;;;;;;;;;5036306;28;20401;-91
2022/01/27 00:51:25;;;;;;;151.45;82.35;;;;;;;;;;5039413;28;20419;-91
2022/01/27 00:54:02;;;;;;;151.15;82.32;;;;;;;;;;5038445;28;20493;-90
2022/01/27 00:56:36;;;;;;;150.18;81.80;;;;;;;;;;5043482;28;20415;-91
2022/01/27 00:59:20;;;;;;;149.20;84.03;;;;;;;;;;5034051;28;20928;-91
2022/01/27 01:01:56;;;;;;;158.93;84.25;;;;;;;;;;5031778;28;20435;-90
2022/01/27 01:04:28;;;;;;;157.00;84.80;;;;;;;;;;5038195;28;20555;-88
2022/01/27 01:06:55;;;;;;;153.13;84.45;;;;;;;;;;5046094;28;20408;-90
2022/01/27 01:14:57;;;;;;;161.80;86.15;;;;;;;;;;5050267;28;20526;-90
2022/01/27 01:17:49;;;;;;;163.60;86.30;;;;;;;;;;5033333;28;20425;-90
2022/01/27 01:31:27;;;;;;;160.18;85.45;;;;;;;;;;5059950;28;20438;-88
2022/01/27 01:34:00;;;;;;;155.10;85.50;;;;;;;;;;5058812;28;20432;-90
2022/01/27 01:36:36;;;;;;;160.15;85.95;;;;;;;;;;5061060;28;20416;-90
2022/01/27 01:39:05;;;;;;;158.93;86.00;;;;;;;;;;5048450;28;21107;-90
2022/01/27 01:41:34;;;;;;;156.48;86.57;;;;;;;;;;5047317;28;20493;-88
2022/01/27 01:44:01;;;;;;;152.85;84.68;;;;;;;;;;5050403;28;20393;-90
2022/01/27 01:46:29;;;;;;;157.32;85.60;;;;;;;;;;5032410;28;21855;-91
2022/01/27 01:48:56;;;;;;;150.63;83.50;;;;;;;;;;5037687;28;20889;-90
2022/01/27 01:51:27;;;;;;;156.80;85.13;;;;;;;;;;5041585;28;20412;-90
2022/01/27 01:53:55;;;;;;;156.68;84.85;;;;;;;;;;5041030;28;20415;-90
2022/01/27 01:56:22;;;;;;;151.68;84.13;;;;;;;;;;5031823;28;20399;-90
2022/01/27 01:58:51;;;;;;;155.60;82.82;;;;;;;;;;5035064;28;20700;-89
2022/01/27 02:01:19;;;;;;;152.13;81.68;;;;;;;;;;5041089;28;20419;-89
2022/01/27 02:03:47;;;;;;;157.05;84.43;;;;;;;;;;5026044;28;20405;-89
2022/01/27 02:06:21;;;;;;;158.90;84.15;;;;;;;;;;5028875;28;20412;-90
2022/01/27 02:09:05;;;;;;;149.65;82.07;;;;;;;;;;5037774;28;20885;-91
2022/01/27 02:19:52;;;;;;;155.20;85.07;;;;;;;;;;5049003;28;20463;-90
2022/01/27 02:22:20;;;;;;;159.13;84.60;;;;;;;;;;5048437;28;20426;-90
2022/01/27 02:24:47;;;;;;;160.18;84.32;;;;;;;;;;5042535;28;20391;-90
2022/01/27 02:27:15;;;;;;;156.18;82.70;;;;;;;;;;5032769;28;20762;-90
2022/01/27 02:29:44;;;;;;;152.65;80.85;;;;;;;;;;5039229;28;20405;-90
2022/01/27 02:32:12;;;;;;;151.20;81.03;;;;;;;;;;5040572;28;20488;-89
2022/01/27 02:34:39;;;;;;;147.63;79.95;;;;;;;;;;5038621;28;20405;-91
2022/01/27 02:37:08;;;;;;;151.15;79.30;;;;;;;;;;5046142;28;20416;-90
2022/01/27 02:39:35;;;;;;;147.45;78.20;;;;;;;;;;5036531;28;20400;-91
2022/01/27 02:42:06;;;;;;;151.52;79.68;;;;;;;;;;5038272;28;20518;-88
2022/01/27 02:44:44;;;;;;;147.32;79.47;;;;;;;;;;5052471;28;20410;-90
2022/01/27 02:47:11;;;;;;;146.55;79.25;;;;;;;;;;5040885;28;20399;-91
2022/01/27 02:49:38;;;;;;;152.80;79.17;;;;;;;;;;5048225;28;20499;-91
2022/01/27 02:52:08;;;;;;;147.63;77.22;;;;;;;;;;5048461;28;20405;-90
2022/01/27 02:54:35;;;;;;;144.52;76.80;;;;;;;;;;5040712;28;20805;-90
2022/01/27 02:57:03;;;;;;;145.80;77.72;;;;;;;;;;5041981;28;21037;-90
2022/01/27 02:59:30;;;;;;;150.40;78.95;;;;;;;;;;5036450;28;20424;-90
2022/01/27 03:01:57;;;;;;;151.50;78.83;;;;;;;;;;5051289;28;20503;-90
2022/01/27 03:04:26;;;;;;;154.73;76.70;;;;;;;;;;5052217;28;20482;-90
2022/01/27 03:06:52;;;;;;;145.38;77.95;;;;;;;;;;5036116;28;20812;-90
2022/01/27 03:09:21;;;;;;;142.55;75.05;;;;;;;;;;5039884;28;20403;-90
2022/01/27 03:11:51;;;;;;;148.68;76.95;;;;;;;;;;5052260;28;20404;-90
2022/01/27 03:14:20;;;;;;;151.93;77.40;;;;;;;;;;5032115;28;20801;-90
2022/01/27 03:16:47;;;;;;;148.32;78.00;;;;;;;;;;5035444;28;20408;-90
2022/01/27 03:19:14;;;;;;;142.45;73.82;;;;;;;;;;5052310;28;20400;-90
2022/01/27 03:21:42;;;;;;;146.90;76.78;;;;;;;;;;5043562;28;20442;-90
2022/01/27 03:24:09;;;;;;;156.98;77.63;;;;;;;;;;5052223;28;20403;-90
2022/01/27 03:26:37;;;;;;;151.20;78.07;;;;;;;;;;5041915;28;20405;-90
2022/01/27 03:29:05;;;;;;;154.13;77.10;;;;;;;;;;5041940;28;20469;-90
2022/01/27 03:31:32;;;;;;;152.35;78.22;;;;;;;;;;5033913;28;20440;-90
2022/01/27 03:33:59;;;;;;;141.82;74.15;;;;;;;;;;5036040;28;20429;-91
2022/01/27 03:36:26;;;;;;;149.82;75.50;;;;;;;;;;5014097;28;20432;-90
2022/01/27 03:38:53;;;;;;;147.32;76.28;;;;;;;;;;5030883;28;20467;-90
2022/01/27 03:41:22;;;;;;;146.85;75.90;;;;;;;;;;5047500;28;20408;-90
2022/01/27 03:43:52;;;;;;;149.37;76.60;;;;;;;;;;5052013;28;20407;-90
2022/01/27 03:46:20;;;;;;;146.83;75.13;;;;;;;;;;5043549;28;20401;-90
2022/01/27 03:48:46;;;;;;;145.00;74.97;;;;;;;;;;5031911;28;20417;-90
2022/01/27 03:51:13;;;;;;;142.52;72.78;;;;;;;;;;5039924;28;20757;-90
2022/01/27 03:53:40;;;;;;;142.27;73.18;;;;;;;;;;5038252;28;20401;-90
2022/01/27 03:56:08;;;;;;;142.25;72.30;;;;;;;;;;5045288;28;20401;-89
2022/01/27 03:58:36;;;;;;;148.38;76.38;;;;;;;;;;5031625;28;20464;-90
2022/01/27 04:01:05;;;;;;;144.43;73.60;;;;;;;;;;5036090;28;20404;-89
2022/01/27 04:03:36;;;;;;;143.40;73.45;;;;;;;;;;5045539;28;20447;-90
2022/01/27 04:06:06;;;;;;;147.50;74.03;;;;;;;;;;5050291;28;20480;-90
2022/01/27 04:08:36;;;;;;;147.93;74.13;;;;;;;;;;5049953;28;20410;-90
2022/01/27 04:11:03;;;;;;;143.70;74.40;;;;;;;;;;5051739;28;20400;-90
2022/01/27 04:13:29;;;;;;;142.43;72.90;;;;;;;;;;5047005;28;20405;-90
2022/01/27 04:15:56;;;;;;;144.25;72.95;;;;;;;;;;5032820;28;20405;-90
2022/01/27 04:18:25;;;;;;;150.13;73.75;;;;;;;;;;5043478;28;20945;-91
2022/01/27 04:20:52;;;;;;;138.27;71.55;;;;;;;;;;5052430;28;20406;-89
2022/01/27 04:23:19;;;;;;;145.25;72.03;;;;;;;;;;5055409;28;20423;-90
2022/01/27 04:25:46;;;;;;;144.48;72.95;;;;;;;;;;5058299;28;20456;-89
2022/01/27 04:28:18;;;;;;;144.07;71.28;;;;;;;;;;5064828;28;20395;-89
2022/01/27 04:30:45;;;;;;;139.77;69.87;;;;;;;;;;5036101;28;20474;-90
2022/01/27 04:33:11;;;;;;;147.95;71.03;;;;;;;;;;5037436;28;20414;-90
2022/01/27 04:35:45;;;;;;;142.30;70.47;;;;;;;;;;5051108;28;20457;-91
2022/01/27 04:38:30;;;;;;;137.15;69.35;;;;;;;;;;5034023;28;20756;-90
2022/01/27 04:41:06;;;;;;;136.43;70.75;;;;;;;;;;5031255;28;21040;-90
2022/01/27 04:43:39;;;;;;;142.20;70.65;;;;;;;;;;5030356;28;20421;-90
2022/01/27 04:46:17;;;;;;;138.98;70.28;;;;;;;;;;5030983;28;20451;-90
2022/01/27 04:48:49;;;;;;;142.95;72.32;;;;;;;;;;5039301;28;20782;-91
2022/01/27 04:51:20;;;;;;;143.07;70.47;;;;;;;;;;5046408;28;20409;-91
2022/01/27 04:53:52;;;;;;;143.43;70.80;;;;;;;;;;5039316;28;20405;-91
2022/01/27 04:56:20;;;;;;;131.15;67.82;;;;;;;;;;5042290;28;20823;-88
2022/01/27 04:58:51;;;;;;;138.05;70.32;;;;;;;;;;5050547;28;20404;-90
2022/01/27 05:01:20;;;;;;;137.65;70.40;;;;;;;;;;5038612;28;21159;-89
2022/01/27 05:03:51;;;;;;;138.80;69.93;;;;;;;;;;5035557;28;20420;-89
2022/01/27 05:06:19;;;;;;;136.20;69.35;;;;;;;;;;5049404;28;20477;-90
2022/01/27 05:08:46;;;;;;;139.02;68.65;;;;;;;;;;5042656;28;20415;-91
2022/01/27 05:11:19;;;;;;;142.38;71.53;;;;;;;;;;5030062;28;20460;-90
2022/01/27 05:13:53;;;;;;;140.65;70.88;;;;;;;;;;5048878;28;20422;-89
2022/01/27 05:16:21;;;;;;;141.43;70.53;;;;;;;;;;5034078;28;20411;-89
2022/01/27 05:18:48;;;;;;;141.43;69.68;;;;;;;;;;5041550;28;20865;-89
2022/01/27 05:21:14;;;;;;;144.13;71.37;;;;;;;;;;5047773;28;20411;-89
2022/01/27 05:23:43;;;;;;;139.63;70.90;;;;;;;;;;5046357;28;20416;-90
2022/01/27 05:26:10;;;;;;;137.23;69.43;;;;;;;;;;5032840;28;20958;-89
2022/01/27 05:28:36;;;;;;;144.20;71.47;;;;;;;;;;5043869;28;20401;-89
2022/01/27 05:31:05;;;;;;;142.10;70.35;;;;;;;;;;5041242;28;20401;-90
2022/01/27 05:33:32;;;;;;;140.93;69.38;;;;;;;;;;5044937;28;20457;-90
2022/01/27 05:35:59;;;;;;;148.93;73.60;;;;;;;;;;5041701;28;20410;-89
2022/01/27 05:38:26;;;;;;;152.98;76.05;;;;;;;;;;5023207;28;20406;-90
2022/01/27 05:40:54;;;;;;;166.60;77.25;;;;;;;;;;5027145;28;20404;-90
2022/01/27 05:43:21;;;;;;;162.82;78.60;;;;;;;;;;5036427;28;20476;-89
2022/01/27 05:45:48;;;;;;;162.15;78.97;;;;;;;;;;5038796;28;20405;-89
2022/01/27 05:48:15;;;;;;;161.77;78.47;;;;;;;;;;5036978;28;20503;-90
2022/01/27 05:50:42;;;;;;;161.60;78.43;;;;;;;;;;5031780;28;20410;-89
2022/01/27 05:53:09;;;;;;;166.73;76.82;;;;;;;;;;5046754;28;20403;-90
2022/01/27 05:55:36;;;;;;;158.80;76.18;;;;;;;;;;5042344;28;20458;-91
2022/01/27 05:58:05;;;;;;;157.70;76.40;;;;;;;;;;5044498;28;20972;-89
2022/01/27 06:00:32;;;;;;;158.02;74.50;;;;;;;;;;5044260;28;21329;-90
2022/01/27 06:02:58;;;;;;;152.73;73.68;;;;;;;;;;5029297;28;20432;-90
2022/01/27 06:05:26;;;;;;;153.73;73.55;;;;;;;;;;5048890;28;20407;-90
2022/01/27 06:07:53;;;;;;;152.45;73.90;;;;;;;;;;5032901;28;20889;-90
2022/01/27 06:10:20;;;;;;;154.00;75.53;;;;;;;;;;5040455;28;20497;-91
2022/01/27 06:12:48;;;;;;;150.23;73.50;;;;;;;;;;5040744;28;20467;-90
2022/01/27 06:15:17;;;;;;;147.00;72.40;;;;;;;;;;5037216;28;20459;-90
2022/01/27 06:17:44;;;;;;;143.93;71.70;;;;;;;;;;5045097;28;20407;-91
2022/01/27 06:20:12;;;;;;;149.57;72.25;;;;;;;;;;5047796;28;20403;-90
2022/01/27 06:22:39;;;;;;;152.68;74.20;;;;;;;;;;5048579;28;20427;-91
2022/01/27 06:25:07;;;;;;;146.60;71.57;;;;;;;;;;5045888;28;20407;-90
2022/01/27 06:27:34;;;;;;;153.95;73.60;;;;;;;;;;5044965;28;20399;-89
2022/01/27 06:30:01;;;;;;;141.75;71.10;;;;;;;;;;5045793;28;21451;-87
2022/01/27 06:32:30;;;;;;;148.60;71.70;;;;;;;;;;5045981;28;20929;-89
2022/01/27 06:34:56;;;;;;;142.70;70.22;;;;;;;;;;5041326;28;20399;-89
2022/01/27 06:37:23;;;;;;;141.55;69.90;;;;;;;;;;5043716;28;20401;-89
2022/01/27 06:39:52;;;;;;;148.82;70.60;;;;;;;;;;5046246;28;20463;-89
2022/01/27 06:42:19;;;;;;;138.65;65.47;;;;;;;;;;5023691;28;20409;-88
2022/01/27 06:44:46;;;;;;;141.05;66.45;;;;;;;;;;5024399;28;20428;-88
2022/01/27 06:47:13;;;;;;;140.50;67.45;;;;;;;;;;5043354;28;20772;-88
2022/01/27 06:49:42;;;;;;;153.02;69.50;;;;;;;;;;5039644;28;20963;-88
2022/01/27 06:52:09;;;;;;;158.70;72.65;;;;;;;;;;5040933;28;20910;-88
2022/01/27 06:54:35;;;;;;;156.00;71.00;;;;;;;;;;5042611;28;21247;-87
2022/01/27 06:57:03;;;;;;;156.23;70.28;;;;;;;;;;5042814;28;20415;-87
2022/01/27 06:59:30;;;;;;;154.35;71.88;;;;;;;;;;5037531;28;20401;-89
2022/01/27 07:01:57;;;;;;;153.15;71.05;;;;;;;;;;5041709;28;20429;-87
2022/01/27 07:04:24;;;;;;;140.20;69.57;;;;;;;;;;5039693;28;20507;-87
2022/01/27 07:06:54;;;;;;;144.93;70.07;;;;;;;;;;5041719;28;20403;-88
2022/01/27 07:09:21;;;;;;;142.40;68.80;;;;;;;;;;5039684;28;20433;-86
2022/01/27 07:11:48;;;;;;;140.98;67.15;;;;;;;;;;5045456;28;20410;-87
2022/01/27 07:14:15;;;;;;;146.43;68.07;;;;;;;;;;5057044;28;20403;-87
2022/01/27 07:16:44;;;;;;;136.38;66.35;;;;;;;;;;5059453;28;20431;-86
2022/01/27 07:19:14;;;;;;;136.25;64.80;;;;;;;;;;5064872;28;20387;-88
2022/01/27 07:21:45;;;;;;;134.15;66.88;;;;;;;;;;5031600;28;20404;-88
2022/01/27 07:24:13;;;;;;;131.33;65.20;;;;;;;;;;5049482;28;20459;-85
2022/01/27 07:26:40;;;;;;;136.85;66.10;;;;;;;;;;5042742;28;21170;-89
2022/01/27 07:29:07;;;;;;;134.93;65.00;;;;;;;;;;5048335;28;20410;-90
2022/01/27 07:31:34;;;;;;;137.07;65.55;;;;;;;;;;5046811;28;20489;-87
2022/01/27 07:34:01;;;;;;;131.95;65.65;;;;;;;;;;5046522;28;20412;-89
2022/01/27 07:36:31;;;;;;;142.23;67.95;;;;;;;;;;5048794;28;20453;-88
2022/01/27 07:38:58;;;;;;;146.07;66.28;;;;;;;;;;5035913;28;20457;-88
2022/01/27 07:41:27;;;;;;;155.73;66.10;;;;;;;;;;5059472;28;20406;-88
2022/01/27 07:43:54;;;;;;;169.32;69.50;;;;;;;;;;5039259;28;20475;-88
2022/01/27 07:46:21;;;;;;;181.38;81.03;;;;;;;;;;5042390;28;20804;-90
2022/01/27 07:48:48;;;;;;;185.27;88.00;;;;;;;;;;5041555;28;20461;-89
2022/01/27 07:51:16;;;;;;;193.63;96.75;;;;;;;;;;5025776;28;20885;-89
2022/01/27 07:53:44;;;;;;;132.20;67.38;;;;;;;;;;5035745;28;21221;-88
2022/01/27 07:56:11;;;;;;;229.98;117.97;;;;;;;;;;5046670;28;20887;-89
2022/01/27 07:58:42;;;;;;;171.70;83.50;;;;;;;;;;5044614;28;20411;-89
2022/01/27 08:01:10;;;;;;;149.00;72.65;;;;;;;;;;5021348;28;20397;-89
2022/01/27 08:03:37;;;;;;;138.15;66.80;;;;;;;;;;5057970;22;20447;-82
2022/01/27 08:06:04;;;;;;;148.20;67.23;;;;;;;;;;5064366;28;20946;-82
2022/01/27 08:08:31;;;;;;;145.17;68.13;;;;;;;;;;5063696;28;20757;-83
2022/01/27 08:10:58;;;;;;;145.57;70.30;;;;;;;;;;5065029;28;20449;-82
2022/01/27 08:13:26;;;;;;;145.18;67.72;;;;;;;;;;5064248;28;20959;-82
2022/01/27 08:15:54;;;;;;;157.50;72.10;;;;;;;;;;5065174;28;20410;-82
2022/01/27 08:18:21;;;;;;;159.48;74.97;;;;;;;;;;5064000;28;21914;-82
2022/01/27 08:20:49;;;;;;;168.37;82.37;;;;;;;;;;5064450;28;20428;-82
2022/01/27 08:23:16;;;;;;;167.50;81.28;;;;;;;;;;5063222;28;20555;-82
2022/01/27 08:25:48;;;;;;;171.45;81.60;;;;;;;;;;5061696;28;20420;-82
2022/01/27 08:28:22;;;;;;;172.57;83.22;;;;;;;;;;5063189;28;20424;-87
2022/01/27 08:30:52;;;;;;;175.13;82.40;;;;;;;;;;5065046;28;20406;-88
2022/01/27 08:33:23;;;;;;;160.95;79.50;;;;;;;;;;5062020;28;21190;-85
2022/01/27 08:35:50;;;;;;;168.50;80.50;;;;;;;;;;5061712;28;20398;-89
2022/01/27 08:38:17;;;;;;;170.70;81.70;;;;;;;;;;5063863;28;20463;-87
2022/01/27 08:40:44;;;;;;;164.70;79.35;;;;;;;;;;5063691;28;20414;-87
2022/01/27 08:43:10;;;;;;;163.38;77.22;;;;;;;;;;5063194;28;20417;-88
2022/01/27 08:45:39;;;;;;;157.43;77.63;;;;;;;;;;5062901;28;20751;-88
2022/01/27 08:48:06;;;;;;;165.98;75.85;;;;;;;;;;5063682;28;20475;-82
2022/01/27 08:50:35;;;;;;;161.15;75.85;;;;;;;;;;5060250;28;20404;-82
2022/01/27 08:53:02;;;;;;;156.07;74.68;;;;;;;;;;5057902;28;20401;-82
2022/01/27 08:55:29;;;;;;;158.40;74.75;;;;;;;;;;5061948;28;20463;-82
2022/01/27 08:57:56;;;;;;;165.75;76.57;;;;;;;;;;5061989;28;20408;-82
2022/01/27 09:00:23;;;;;;;151.23;72.97;;;;;;;;;;5062530;28;20948;-82
2022/01/27 09:02:50;;;;;;;152.25;73.05;;;;;;;;;;5062080;28;20398;-82
2022/01/27 09:05:17;;;;;;;144.55;71.60;;;;;;;;;;5061121;28;20402;-82
2022/01/27 09:07:45;;;;;;;152.63;73.35;;;;;;;;;;5064194;28;20424;-82
2022/01/27 09:10:12;;;;;;;156.35;73.10;;;;;;;;;;5062831;28;20463;-82
2022/01/27 09:12:39;;;;;;;157.52;75.88;;;;;;;;;;5062894;28;20428;-81
2022/01/27 09:15:06;;;;;;;153.38;74.78;;;;;;;;;;5059426;28;20487;-82
2022/01/27 09:17:39;;;;;;;145.73;73.15;;;;;;;;;;5062421;28;20394;-82
2022/01/27 09:20:10;;;;;;;147.30;74.57;;;;;;;;;;5063200;28;20398;-82
2022/01/27 09:22:38;;;;;;;147.65;74.70;;;;;;;;;;5063290;28;20798;-82
2022/01/27 09:25:14;;;;;;;147.05;73.75;;;;;;;;;;5062747;28;20480;-80
2022/01/27 09:27:42;;;;;;;149.60;75.47;;;;;;;;;;5060455;28;20889;-83
2022/01/27 09:30:11;;;;;;;148.97;74.63;;;;;;;;;;5062185;28;20421;-82
2022/01/27 09:32:38;;;;;;;146.18;73.90;;;;;;;;;;5064118;28;20482;-82
2022/01/27 09:35:06;;;;;;;144.33;74.27;;;;;;;;;;5063127;28;20529;-82
2022/01/27 09:37:33;;;;;;;141.35;72.47;;;;;;;;;;5062308;28;20406;-82
2022/01/27 09:40:00;;;;;;;145.40;74.43;;;;;;;;;;5063426;28;20800;-82
2022/01/27 09:42:32;;;;;;;143.63;74.23;;;;;;;;;;5059580;28;20504;-83
2022/01/27 09:45:02;;;;;;;150.35;74.65;;;;;;;;;;5060843;28;20450;-82
2022/01/27 09:47:31;;;;;;;144.27;72.85;;;;;;;;;;5060770;28;20412;-82
2022/01/27 09:50:08;;;;;;;142.73;73.85;;;;;;;;;;5060554;28;20483;-82
2022/01/27 09:52:36;;;;;;;149.30;73.97;;;;;;;;;;5051449;28;20426;-82
2022/01/27 09:55:03;;;;;;;142.60;73.53;;;;;;;;;;5051548;28;20525;-82
2022/01/27 09:57:31;;;;;;;143.38;72.68;;;;;;;;;;5056185;28;20415;-82
2022/01/27 09:59:58;;;;;;;141.67;73.60;;;;;;;;;;5051466;28;20407;-82
2022/01/27 10:02:26;;;;;;;144.25;73.15;;;;;;;;;;5055822;28;20910;-82
2022/01/27 10:04:57;;;;;;;145.30;74.35;;;;;;;;;;5055044;28;20950;-82
2022/01/27 10:07:26;;;;;;;146.60;74.75;;;;;;;;;;5059487;28;20404;-82
2022/01/27 10:10:01;;;;;;;143.02;73.00;;;;;;;;;;5060758;28;20479;-82
2022/01/27 10:12:35;;;;;;;148.30;73.37;;;;;;;;;;5059286;28;20414;-82
2022/01/27 10:15:04;;;;;;;145.15;75.10;;;;;;;;;;5059758;28;20415;-82
2022/01/27 10:17:34;;;;;;;155.98;76.53;;;;;;;;;;5056621;28;20451;-79
2022/01/27 10:20:02;;;;;;;146.43;73.17;;;;;;;;;;5052309;28;20395;-82
2022/01/27 10:22:28;;;;;;;146.07;74.70;;;;;;;;;;5052434;28;20405;-82
2022/01/27 10:25:04;;;;;;;149.40;75.38;;;;;;;;;;5051747;28;20490;-82
2022/01/27 10:27:45;;;;;;;139.65;71.60;;;;;;;;;;5057537;28;20408;-82
2022/01/27 10:30:55;;;;;;;140.68;72.38;;;;;;;;;;5052628;28;20491;-82
2022/01/27 10:33:22;;;;;;;144.68;72.90;;;;;;;;;;5054974;28;20467;-82
2022/01/27 10:35:48;;;;;;;145.50;73.40;;;;;;;;;;5055014;28;20393;-82
2022/01/27 10:38:16;;;;;;;145.63;73.68;;;;;;;;;;5058972;28;20810;-82
2022/01/27 10:40:45;;;;;;;137.85;70.32;;;;;;;;;;5058200;28;20398;-82
2022/01/27 10:43:16;;;;;;;145.93;72.47;;;;;;;;;;5058927;28;20431;-82
2022/01/27 10:46:06;;;;;;;147.13;73.15;;;;;;;;;;5054084;28;21198;-82
2022/01/27 10:48:34;;;;;;;142.55;74.53;;;;;;;;;;5061298;28;20408;-81
2022/01/27 10:51:07;;;;;;;147.93;75.10;;;;;;;;;;5063229;28;20400;-82
2022/01/27 10:53:45;;;;;;;144.52;75.38;;;;;;;;;;5066380;28;20409;-82
2022/01/27 10:56:18;;;;;;;147.32;75.97;;;;;;;;;;5065449;28;20406;-80
2022/01/27 10:58:46;;;;;;;152.20;78.28;;;;;;;;;;5066130;28;20402;-80
2022/01/27 11:01:22;;;;;;;153.52;77.50;;;;;;;;;;5065526;28;20820;-81
2022/01/27 11:03:51;;;;;;;148.02;75.68;;;;;;;;;;5062436;28;20432;-81
2022/01/27 11:06:17;;;;;;;144.13;75.50;;;;;;;;;;5063914;28;20489;-81
2022/01/27 11:08:44;;;;;;;147.23;75.93;;;;;;;;;;5063928;28;20406;-80
2022/01/27 11:11:11;;;;;;;148.55;75.80;;;;;;;;;;5065272;28;20458;-80
2022/01/27 11:13:38;;;;;;;140.98;71.43;;;;;;;;;;5067404;28;20406;-82
2022/01/27 11:16:12;;;;;;;143.05;73.10;;;;;;;;;;5066500;28;20410;-81
2022/01/27 11:18:39;;;;;;;153.18;77.03;;;;;;;;;;5066103;28;20398;-81
2022/01/27 11:21:12;;;;;;;146.27;76.63;;;;;;;;;;5065809;28;20479;-81
2022/01/27 11:24:02;;;;;;;152.75;76.32;;;;;;;;;;5065928;28;20905;-81
2022/01/27 11:26:29;;;;;;;151.88;78.38;;;;;;;;;;5063340;28;20413;-81
2022/01/27 11:28:58;;;;;;;148.90;75.47;;;;;;;;;;5067016;28;20410;-81
2022/01/27 11:31:46;;;;;;;154.18;78.80;;;;;;;;;;5064715;28;20475;-81
2022/01/27 11:34:13;;;;;;;158.37;80.63;;;;;;;;;;5065065;28;20410;-81
2022/01/27 11:37:00;;;;;;;155.48;77.22;;;;;;;;;;5066210;28;20877;-81
2022/01/27 11:39:48;;;;;;;160.55;78.35;;;;;;;;;;5065818;28;20402;-81
2022/01/27 11:42:19;;;;;;;153.27;78.72;;;;;;;;;;5063809;28;20994;-81
2022/01/27 11:44:47;;;;;;;154.32;79.88;;;;;;;;;;5066027;28;20551;-81
2022/01/27 11:47:20;;;;;;;152.52;77.05;;;;;;;;;;5067649;28;20406;-80
2022/01/27 11:49:59;;;;;;;155.32;76.50;;;;;;;;;;5068031;28;20816;-81
2022/01/27 11:52:31;;;;;;;147.57;73.40;;;;;;;;;;5066755;28;20406;-80
2022/01/27 11:55:17;;;;;;;154.25;75.20;;;;;;;;;;5066543;28;20402;-83
2022/01/27 11:57:48;;;;;;;157.07;81.57;;;;;;;;;;5065990;28;20411;-83
2022/01/27 12:00:17;;;;;;;161.38;78.93;;;;;;;;;;5062890;28;20436;-82
2022/01/27 12:03:15;;;;;;;150.30;76.30;;;;;;;;;;5066453;28;20412;-80
2022/01/27 12:05:46;;;;;;;153.35;80.03;;;;;;;;;;5064783;28;20422;-82
2022/01/27 12:08:24;;;;;;;155.40;77.63;;;;;;;;;;5064460;28;20931;-82
2022/01/27 12:10:54;;;;;;;155.98;78.78;;;;;;;;;;5055113;28;20410;-82
2022/01/27 12:13:55;;;;;;;151.85;73.28;;;;;;;;;;5062719;28;20458;-81
2022/01/27 12:16:39;;;;;;;170.50;83.80;;;;;;;;;;5047673;28;20506;-80
2022/01/27 12:19:09;;;;;;;145.85;75.57;;;;;;;;;;5062410;28;20413;-82
2022/01/27 12:21:38;;;;;;;157.18;76.68;;;;;;;;;;5058997;28;20398;-81
2022/01/27 12:24:18;;;;;;;144.27;71.88;;;;;;;;;;5062727;28;20414;-81
2022/01/27 12:26:47;;;;;;;141.33;71.93;;;;;;;;;;5059591;28;20974;-80
2022/01/27 12:29:22;;;;;;;150.93;73.60;;;;;;;;;;5061504;28;20406;-79
2022/01/27 12:31:50;;;;;;;142.32;71.75;;;;;;;;;;5062223;28;20501;-80
2022/01/27 12:34:19;;;;;;;149.68;75.65;;;;;;;;;;5059954;28;20422;-81
2022/01/27 12:36:57;;;;;;;153.23;73.53;;;;;;;;;;5061052;28;20398;-79
2022/01/27 12:39:26;;;;;;;141.20;70.60;;;;;;;;;;5055720;28;20642;-79
2022/01/27 12:41:54;;;;;;;141.57;70.60;;;;;;;;;;5057487;28;20409;-81
2022/01/27 12:44:21;;;;;;;139.90;70.32;;;;;;;;;;5050315;28;20893;-82
2022/01/27 12:47:11;;;;;;;144.55;70.57;;;;;;;;;;5049735;28;20409;-82
2022/01/27 12:49:43;;;;;;;139.00;67.47;;;;;;;;;;5050469;28;20520;-81
2022/01/27 12:52:14;;;;;;;138.27;66.63;;;;;;;;;;5049617;28;20403;-81
2022/01/27 12:54:41;;;;;;;130.50;63.55;;;;;;;;;;5052238;28;20414;-82
2022/01/27 12:57:09;;;;;;;126.55;60.30;;;;;;;;;;5054982;28;20412;-82
2022/01/27 12:59:38;;;;;;;121.50;59.28;;;;;;;;;;5051321;28;20406;-82
2022/01/27 13:02:07;;;;;;;124.00;59.65;;;;;;;;;;5052932;28;20471;-81
2022/01/27 13:04:35;;;;;;;127.13;60.10;;;;;;;;;;5059739;28;20421;-82
2022/01/27 13:07:05;;;;;;;127.03;61.72;;;;;;;;;;5055112;28;20497;-82
2022/01/27 13:09:33;;;;;;;130.35;62.90;;;;;;;;;;5053702;28;20455;-81
2022/01/27 13:12:12;;;;;;;130.40;63.42;;;;;;;;;;5056942;28;20410;-83
2022/01/27 13:14:49;;;;;;;134.70;63.45;;;;;;;;;;5052253;28;20514;-82
2022/01/27 13:17:24;;;;;;;122.77;58.77;;;;;;;;;;5052591;28;20491;-82
2022/01/27 13:19:57;;;;;;;125.78;58.70;;;;;;;;;;5054931;28;20419;-82
2022/01/27 13:22:34;;;;;;;124.05;57.40;;;;;;;;;;5054764;28;20795;-82
2022/01/27 13:25:01;;;;;;;110.47;52.33;;;;;;;;;;5052948;28;20921;-81
2022/01/27 13:27:28;;;;;;;120.80;55.20;;;;;;;;;;5057532;28;20956;-82
2022/01/27 13:29:58;;;;;;;120.88;53.42;;;;;;;;;;5055487;28;20410;-82
2022/01/27 13:32:25;;;;;;;120.63;56.17;;;;;;;;;;5051970;28;20497;-82
2022/01/27 13:34:52;;;;;;;112.00;50.22;;;;;;;;;;5051272;28;20410;-83
2022/01/27 13:37:34;;;;;;;108.72;50.83;;;;;;;;;;5053108;28;20409;-82
2022/01/27 13:42:56;;;;;;;107.55;50.67;;;;;;;;;;5055934;28;20413;-82
2022/01/27 13:45:24;;;;;;;116.53;50.25;;;;;;;;;;5061982;28;20425;-82
2022/01/27 13:47:51;;;;;;;110.78;50.00;;;;;;;;;;5060152;28;20904;-81
2022/01/27 13:50:19;;;;;;;110.35;49.28;;;;;;;;;;5060271;28;20414;-81
2022/01/27 13:52:50;;;;;;;110.07;48.70;;;;;;;;;;5061291;28;20405;-80
2022/01/27 13:55:19;;;;;;;112.18;50.17;;;;;;;;;;5061212;28;20410;-81
2022/01/27 13:57:52;;;;;;;109.95;48.90;;;;;;;;;;5061982;28;20412;-83
2022/01/27 14:00:22;;;;;;;108.22;49.08;;;;;;;;;;5061497;28;20402;-82
2022/01/27 14:02:53;;;;;;;107.55;49.13;;;;;;;;;;5063565;28;20398;-82
2022/01/27 14:05:22;;;;;;;109.78;48.72;;;;;;;;;;5058249;28;20751;-82
2022/01/27 14:07:52;;;;;;;115.43;49.97;;;;;;;;;;5057162;28;20397;-83
2022/01/27 14:10:22;;;;;;;110.53;50.10;;;;;;;;;;5052885;28;20411;-82
2022/01/27 14:12:54;;;;;;;109.50;49.88;;;;;;;;;;5054321;28;20416;-89
2022/01/27 14:15:33;;;;;;;108.30;50.45;;;;;;;;;;5052363;28;20407;-82
2022/01/27 14:18:02;;;;;;;108.10;49.03;;;;;;;;;;5057013;28;20402;-82
2022/01/27 14:20:28;;;;;;;107.68;49.22;;;;;;;;;;5054488;28;20405;-81
2022/01/27 14:23:12;;;;;;;116.05;51.20;;;;;;;;;;5056227;28;20487;-83
2022/01/27 14:25:45;;;;;;;111.30;49.80;;;;;;;;;;5064256;28;20962;-82
2022/01/27 14:28:12;;;;;;;116.07;54.22;;;;;;;;;;5062299;28;20869;-82
2022/01/27 14:30:39;;;;;;;118.97;54.90;;;;;;;;;;5057991;28;20402;-80
2022/01/27 14:33:07;;;;;;;118.10;55.63;;;;;;;;;;5061566;28;20415;-82
2022/01/27 14:35:33;;;;;;;125.00;57.05;;;;;;;;;;5055381;28;20523;-82
2022/01/27 14:38:00;;;;;;;119.72;56.75;;;;;;;;;;5060864;28;20403;-79
2022/01/27 14:40:28;;;;;;;122.47;57.58;;;;;;;;;;5055696;28;20455;-82
2022/01/27 14:42:59;;;;;;;116.18;55.88;;;;;;;;;;5059023;28;20769;-82
2022/01/27 14:45:26;;;;;;;123.57;56.80;;;;;;;;;;5064568;28;21018;-82
2022/01/27 14:47:59;;;;;;;120.07;55.15;;;;;;;;;;5065114;28;20405;-82